createdAt,value
2022-12-08T00:02:03.067Z,23.15
2022-12-08T00:14:29.808Z,22.17
2022-12-08T00:20:31.957Z,22.98
2022-12-08T00:26:34.048Z,23.33
2022-12-08T00:32:37.877Z,26.65
2022-12-08T00:38:41.302Z,25.48
2022-12-08T00:44:45.416Z,23.42
2022-12-08T00:50:47.858Z,23.75
2022-12-08T00:56:50.601Z,26.10
2022-12-08T01:02:53.829Z,23.20
2022-12-08T01:09:13.026Z,27.60
2022-12-08T01:15:32.953Z,26.25
2022-12-08T01:21:35.055Z,25.27
2022-12-08T01:27:37.231Z,23.52
2022-12-08T01:33:40.408Z,26.90
2022-12-08T01:39:42.838Z,28.33
2022-12-08T01:45:45.588Z,27.08
2022-12-08T01:51:51.128Z,27.65
2022-12-08T01:57:59.225Z,26.48
2022-12-08T02:04:03.265Z,26.27
2022-12-08T02:10:06.402Z,26.88
2022-12-08T02:16:33.357Z,26.55
2022-12-08T02:22:38.751Z,29.10
2022-12-08T02:28:58.186Z,23.98
2022-12-08T02:35:06.406Z,26.20
2022-12-08T02:41:17.851Z,27.40
2022-12-08T02:47:22.512Z,28.42
2022-12-08T02:53:24.931Z,28.33
2022-12-08T02:59:58.734Z,21.92
2022-12-08T03:06:01.109Z,20.90
2022-12-08T03:12:29.299Z,23.27
2022-12-08T03:18:36.707Z,19.90
2022-12-08T03:24:41.408Z,19.17
2022-12-08T03:30:46.408Z,20.92
2022-12-08T03:36:48.748Z,19.48
2022-12-08T03:42:51.071Z,19.13
2022-12-08T03:48:53.423Z,20.77
2022-12-08T03:54:55.745Z,19.73
2022-12-08T04:00:57.967Z,21.58
2022-12-08T04:07:00.628Z,18.50
2022-12-08T04:13:02.747Z,22.13
2022-12-08T04:19:05.484Z,23.17
2022-12-08T04:31:11.006Z,24.50
2022-12-08T04:37:13.375Z,27.63
2022-12-08T04:43:15.973Z,31.25
2022-12-08T04:55:20.762Z,29.67
2022-12-08T05:01:22.990Z,31.40
2022-12-08T05:07:25.295Z,31.67
2022-12-08T05:13:27.576Z,33.33
2022-12-08T05:19:29.933Z,31.20
2022-12-08T05:25:32.174Z,32.25
2022-12-08T05:31:34.415Z,30.17
2022-12-08T05:37:37.049Z,32.00
2022-12-08T05:43:39.310Z,32.40
2022-12-08T05:49:41.659Z,31.00
2022-12-08T05:55:43.957Z,27.17
2022-12-08T06:01:46.133Z,27.90
2022-12-08T06:07:48.461Z,32.15
2022-12-08T06:13:51.636Z,31.48
2022-12-08T06:19:53.821Z,31.83
2022-12-08T06:25:55.934Z,32.25
2022-12-08T06:31:58.326Z,51.17
2022-12-08T06:38:00.404Z,31.52
2022-12-08T06:44:02.808Z,29.90
2022-12-08T06:50:06.513Z,30.45
2022-12-08T06:56:12.230Z,27.95
2022-12-08T07:02:14.695Z,29.85
2022-12-08T07:08:17.019Z,30.42
2022-12-08T07:14:39.214Z,29.48
2022-12-08T07:20:41.670Z,29.38
2022-12-08T07:26:43.838Z,31.40
2022-12-08T07:32:46.596Z,29.52
2022-12-08T07:38:49.902Z,32.15
2022-12-08T07:44:52.191Z,43.17
2022-12-08T07:51:01.614Z,34.97
2022-12-08T07:57:04.199Z,36.20
2022-12-08T08:03:06.606Z,32.72
2022-12-08T08:09:10.527Z,30.85
2022-12-08T08:15:12.941Z,29.92
2022-12-08T08:21:43.637Z,31.23
2022-12-08T08:27:38.120Z,32.20
2022-12-08T08:33:41.729Z,32.25
2022-12-08T08:39:44.584Z,29.17
2022-12-08T08:45:47.762Z,30.53
2022-12-08T08:51:49.932Z,26.55
2022-12-08T08:57:52.061Z,27.60
2022-12-08T09:03:55.307Z,28.13
2022-12-08T09:10:01.565Z,26.08
2022-12-08T09:16:06.702Z,25.23
2022-12-08T09:22:08.845Z,23.02
2022-12-08T09:28:11.108Z,25.73
2022-12-08T09:34:13.490Z,24.73
2022-12-08T09:40:20.340Z,26.33
2022-12-08T09:46:22.736Z,29.00
2022-12-08T09:52:35.729Z,23.83
2022-12-08T10:04:57.913Z,24.23
2022-12-08T10:11:10.293Z,24.75
2022-12-08T10:17:20.633Z,20.33
2022-12-08T10:23:32.157Z,20.52
2022-12-08T10:29:34.229Z,27.85
2022-12-08T10:35:48.678Z,23.77
2022-12-08T10:41:51.998Z,23.00
2022-12-08T10:48:03.650Z,25.77
2022-12-08T10:54:06.913Z,20.92
2022-12-08T11:00:15.081Z,25.58
2022-12-08T11:06:21.766Z,28.52
2022-12-08T11:12:27.007Z,26.70
2022-12-08T11:18:31.449Z,28.55
2022-12-08T11:24:37.687Z,22.08
2022-12-08T11:30:47.752Z,23.45
2022-12-08T11:36:51.005Z,25.77
2022-12-08T11:42:56.392Z,25.02
2022-12-08T11:49:06.279Z,40.53
2022-12-08T11:55:26.702Z,23.25
2022-12-08T12:01:28.918Z,24.77
2022-12-08T12:07:49.665Z,27.93
2022-12-08T12:14:47.578Z,25.23
2022-12-08T12:21:07.983Z,28.38
2022-12-08T12:27:16.468Z,24.63
2022-12-08T12:33:20.142Z,24.98
2022-12-08T12:39:26.878Z,27.65
2022-12-08T12:45:34.694Z,26.70
2022-12-08T12:51:39.792Z,23.95
2022-12-08T12:57:59.161Z,26.52
2022-12-08T13:04:08.504Z,27.95
2022-12-08T13:10:31.652Z,24.85
2022-12-08T13:16:37.810Z,24.10
2022-12-08T13:23:12.599Z,25.63
2022-12-08T13:29:19.720Z,25.17
2022-12-08T13:35:24.236Z,24.15
2022-12-08T13:41:38.597Z,23.05
2022-12-08T13:48:26.706Z,25.13
2022-12-08T14:01:19.226Z,25.85
2022-12-08T14:07:22.013Z,28.02
2022-12-08T14:13:25.079Z,23.55
2022-12-08T14:19:31.931Z,25.30
2022-12-08T14:25:36.049Z,25.38
2022-12-08T14:31:58.318Z,24.55
2022-12-08T14:38:02.831Z,22.23
2022-12-08T14:44:44.164Z,22.67
2022-12-08T14:50:57.882Z,20.27
2022-12-08T14:57:02.243Z,22.35
2022-12-08T15:03:08.091Z,22.13
2022-12-08T15:09:30.698Z,19.63
2022-12-08T15:15:49.645Z,21.02
2022-12-08T15:21:51.921Z,21.33
2022-12-08T15:27:54.140Z,28.58
2022-12-08T15:34:16.120Z,23.63
2022-12-08T15:40:21.401Z,23.38
2022-12-08T15:46:23.963Z,21.42
2022-12-08T15:52:28.897Z,19.88
2022-12-08T15:58:53.127Z,19.05
2022-12-08T16:05:40.195Z,21.83
2022-12-08T16:12:04.394Z,21.15
2022-12-08T16:17:57.268Z,21.58
2022-12-08T16:24:03.314Z,23.30
2022-12-08T16:30:14.427Z,23.27
2022-12-08T16:36:16.618Z,22.27
2022-12-08T16:42:40.219Z,24.33
2022-12-08T16:48:45.077Z,23.45
2022-12-08T16:54:47.288Z,26.17
2022-12-08T17:00:49.421Z,25.00
2022-12-08T17:06:53.242Z,22.88
2022-12-08T17:12:56.465Z,23.40
2022-12-08T17:18:58.765Z,22.52
2022-12-08T17:25:02.176Z,23.90
2022-12-08T17:31:13.206Z,23.10
2022-12-08T17:37:15.616Z,23.75
2022-12-08T17:43:17.934Z,22.83
2022-12-08T17:49:23.764Z,21.73
2022-12-08T17:55:26.051Z,20.40
2022-12-08T18:01:28.138Z,19.80
2022-12-08T18:07:30.575Z,18.20
2022-12-08T18:13:32.656Z,20.17
2022-12-08T18:19:34.943Z,19.20
2022-12-08T18:25:36.987Z,22.85
2022-12-08T18:31:39.213Z,19.83
2022-12-08T18:37:43.156Z,18.77
2022-12-08T18:43:45.699Z,19.42
2022-12-08T18:49:48.151Z,20.48
2022-12-08T18:55:51.435Z,20.27
2022-12-08T19:01:54.112Z,20.90
2022-12-08T19:07:57.025Z,20.40
2022-12-08T19:13:59.314Z,22.38
2022-12-08T19:20:01.807Z,20.65
2022-12-08T19:26:04.681Z,19.70
2022-12-08T19:32:07.071Z,21.92
2022-12-08T19:38:09.413Z,23.70
2022-12-08T19:44:39.058Z,20.98
2022-12-08T19:50:41.708Z,19.75
2022-12-08T19:56:43.888Z,23.13
2022-12-08T20:02:52.178Z,23.75
2022-12-08T20:08:54.756Z,22.10
2022-12-08T20:14:57.359Z,24.27
2022-12-08T20:20:59.612Z,26.15
2022-12-08T20:27:01.987Z,27.20
2022-12-08T20:33:04.064Z,23.63
2022-12-08T20:39:10.682Z,21.43
2022-12-08T20:45:13.077Z,21.45
2022-12-08T20:51:17.460Z,23.38
2022-12-08T20:57:19.693Z,23.23
2022-12-08T21:03:31.556Z,23.35
2022-12-08T21:09:34.042Z,20.67
2022-12-08T21:21:39.126Z,19.60
2022-12-08T21:27:41.245Z,18.35
2022-12-08T21:33:51.959Z,19.73
2022-12-08T21:39:54.154Z,22.20
2022-12-08T21:45:56.714Z,19.88
2022-12-08T21:58:02.576Z,20.10
2022-12-08T22:04:05.039Z,22.42
2022-12-08T22:16:12.788Z,19.05
2022-12-08T22:22:15.174Z,20.10
2022-12-08T22:28:17.403Z,19.58
2022-12-08T22:34:19.717Z,20.80
2022-12-08T22:40:22.106Z,21.40
2022-12-08T22:46:27.440Z,22.77
2022-12-08T22:52:29.865Z,20.73
2022-12-08T22:58:32.025Z,23.60
2022-12-08T23:04:35.674Z,22.02
2022-12-08T23:10:40.453Z,18.60
2022-12-08T23:16:42.643Z,18.88
2022-12-08T23:22:44.954Z,16.02
2022-12-08T23:28:47.450Z,18.08
2022-12-08T23:34:49.880Z,16.55
2022-12-08T23:40:52.687Z,18.45
2022-12-08T23:46:55.258Z,18.13
2022-12-08T23:53:05.777Z,17.27
2022-12-08T23:59:08.212Z,17.08
